Time;durP1;ratioP1;P1;durP2;ratioP2;P2;SDS_P1;SDS_P2;PMS_P1;PMS_P2;Temp;Humidity;BMP_temperature;BMP_pressure;BME280_temperature;BME280_humidity;BME280_pressure;Samples;Min_cycle;Max_cycle;Signal;HPM_P1;HPM_P2
2023/08/27 00:01:22;;;;;;;5.60;4.47;;;14.70;99.90;;;;;;5039998;28;20029;-66
2023/08/27 00:03:48;;;;;;;4.80;4.40;;;14.70;99.90;;;;;;5041422;28;20417;-66
2023/08/27 00:06:13;;;;;;;4.70;4.20;;;14.60;99.90;;;;;;5056083;28;20036;-66
2023/08/27 00:08:39;;;;;;;4.90;4.38;;;14.60;99.90;;;;;;5052632;28;20120;-67
2023/08/27 00:11:05;;;;;;;4.15;3.75;;;14.60;99.90;;;;;;5050949;28;20458;-66
2023/08/27 00:13:31;;;;;;;4.82;4.32;;;14.60;99.90;;;;;;5050461;28;20074;-66
2023/08/27 00:15:57;;;;;;;5.30;4.57;;;14.60;99.90;;;;;;5048042;28;20104;-66
2023/08/27 00:18:22;;;;;;;5.50;4.75;;;14.60;99.90;;;;;;5051003;28;20033;-66
2023/08/27 00:20:49;;;;;;;4.97;4.10;;;14.60;99.90;;;;;;5037103;28;20445;-66
2023/08/27 00:23:15;;;;;;;4.43;3.95;;;14.50;99.90;;;;;;5043478;28;20502;-66
2023/08/27 00:25:43;;;;;;;6.40;4.43;;;14.50;99.90;;;;;;5043032;28;20029;-66
2023/08/27 00:28:13;;;;;;;5.78;5.18;;;14.50;99.90;;;;;;5049830;28;20041;-66
2023/08/27 00:30:38;;;;;;;7.35;6.30;;;14.50;99.90;;;;;;5048746;28;20496;-66
2023/08/27 00:33:04;;;;;;;6.95;5.97;;;14.40;99.90;;;;;;5042949;28;20037;-66
2023/08/27 00:38:06;;;;;;;5.70;4.78;;;14.50;99.90;;;;;;5070560;28;20455;-65
2023/08/27 00:40:31;;;;;;;5.30;4.80;;;14.60;99.90;;;;;;5069021;28;20032;-65
2023/08/27 00:42:57;;;;;;;6.10;5.50;;;14.60;99.90;;;;;;5073487;28;20336;-65
2023/08/27 00:45:23;;;;;;;5.38;4.75;;;14.60;99.90;;;;;;5060500;28;20120;-65
2023/08/27 00:47:49;;;;;;;5.32;4.82;;;14.60;99.90;;;;;;5053749;28;20041;-65
2023/08/27 00:50:15;;;;;;;6.30;5.20;;;14.60;99.90;;;;;;5052214;28;20037;-65
2023/08/27 00:52:42;;;;;;;5.38;4.88;;;14.60;99.90;;;;;;5044689;28;20067;-65
2023/08/27 00:55:08;;;;;;;5.55;4.95;;;14.60;99.90;;;;;;5053675;28;20032;-65
2023/08/27 00:57:36;;;;;;;6.22;5.28;;;14.60;99.90;;;;;;5053448;28;20037;-65
2023/08/27 01:00:03;;;;;;;6.47;5.15;;;14.70;99.90;;;;;;5048761;28;20705;-65
2023/08/27 01:02:28;;;;;;;6.28;5.68;;;14.60;99.90;;;;;;5035542;28;20044;-65
2023/08/27 01:04:54;;;;;;;6.32;5.32;;;14.70;99.90;;;;;;5032444;28;20406;-65
2023/08/27 01:07:29;;;;;;;8.35;6.65;;;14.70;99.90;;;;;;5052493;28;20040;-65
2023/08/27 01:10:07;;;;;;;8.68;5.60;;;14.70;99.90;;;;;;5052705;28;20047;-65
2023/08/27 01:12:46;;;;;;;6.30;5.65;;;14.70;99.90;;;;;;5051374;28;20052;-65
2023/08/27 01:15:13;;;;;;;6.10;5.50;;;14.70;99.90;;;;;;5052949;28;20040;-65
2023/08/27 01:17:39;;;;;;;6.90;6.20;;;14.70;99.90;;;;;;5052729;28;20070;-65
2023/08/27 01:20:06;;;;;;;7.15;6.30;;;14.80;99.90;;;;;;5034466;28;20081;-65
2023/08/27 01:22:32;;;;;;;8.60;6.68;;;14.80;99.90;;;;;;5043728;28;20036;-65
2023/08/27 01:24:58;;;;;;;6.50;5.65;;;14.80;99.90;;;;;;5051964;28;20033;-65
2023/08/27 01:27:37;;;;;;;7.88;6.50;;;14.80;99.90;;;;;;5035388;28;20120;-65
2023/08/27 01:30:14;;;;;;;8.23;6.30;;;14.90;99.90;;;;;;5033802;28;20124;-65
2023/08/27 01:32:49;;;;;;;8.25;6.70;;;14.90;99.90;;;;;;5044745;28;20040;-65
2023/08/27 01:35:15;;;;;;;7.88;6.38;;;14.90;99.90;;;;;;5049630;28;20120;-65
2023/08/27 01:37:41;;;;;;;8.57;6.78;;;14.90;99.90;;;;;;5046837;28;20060;-65
2023/08/27 01:40:08;;;;;;;8.23;6.55;;;14.90;99.90;;;;;;5052267;28;20040;-65
2023/08/27 01:42:37;;;;;;;7.75;6.32;;;15.00;99.90;;;;;;5051863;28;20546;-65
2023/08/27 01:45:04;;;;;;;9.77;6.50;;;14.90;99.90;;;;;;5052100;28;20063;-65
2023/08/27 01:47:30;;;;;;;8.63;6.35;;;15.00;99.90;;;;;;5051513;28;20534;-63
2023/08/27 01:49:56;;;;;;;7.03;6.35;;;15.00;99.90;;;;;;5052313;28;20124;-62
2023/08/27 01:52:22;;;;;;;8.68;7.43;;;15.10;99.90;;;;;;5052577;28;20103;-62
2023/08/27 01:54:47;;;;;;;8.80;6.40;;;15.00;99.90;;;;;;5046753;28;20112;-63
2023/08/27 01:57:13;;;;;;;7.60;6.90;;;15.00;99.90;;;;;;5030341;28;20040;-63
2023/08/27 01:59:38;;;;;;;7.15;6.40;;;15.00;99.90;;;;;;5052688;28;20048;-64
2023/08/27 02:02:04;;;;;;;7.50;6.18;;;15.00;99.90;;;;;;5050227;28;20045;-64
2023/08/27 02:04:30;;;;;;;8.00;6.70;;;15.00;99.90;;;;;;5050581;28;20058;-64
2023/08/27 02:06:55;;;;;;;7.55;6.53;;;15.00;99.90;;;;;;5034029;28;20033;-64
2023/08/27 02:09:21;;;;;;;8.82;6.57;;;15.00;99.90;;;;;;5051533;28;20036;-64
2023/08/27 02:11:47;;;;;;;8.85;6.55;;;14.90;99.90;;;;;;5050187;28;20083;-64
2023/08/27 02:14:12;;;;;;;7.35;6.45;;;15.00;99.90;;;;;;5050471;28;20048;-64
2023/08/27 02:16:38;;;;;;;8.60;5.88;;;14.90;99.90;;;;;;5051076;28;20033;-64
2023/08/27 02:19:04;;;;;;;6.60;6.00;;;14.80;99.90;;;;;;5052228;28;20033;-64
2023/08/27 02:21:29;;;;;;;7.32;6.63;;;14.80;99.90;;;;;;5046911;28;20082;-64
2023/08/27 02:23:55;;;;;;;6.32;5.72;;;14.80;99.90;;;;;;5050742;28;20040;-64
2023/08/27 02:26:21;;;;;;;6.68;5.30;;;14.70;99.90;;;;;;5049620;28;20041;-64
2023/08/27 02:28:47;;;;;;;7.00;6.07;;;14.70;99.90;;;;;;5044552;28;20056;-64
2023/08/27 02:31:13;;;;;;;6.70;5.45;;;14.70;99.90;;;;;;5046201;28;20038;-64
2023/08/27 02:33:40;;;;;;;8.02;5.80;;;14.70;99.90;;;;;;5050458;28;20040;-64
2023/08/27 02:36:06;;;;;;;7.00;5.90;;;14.60;99.90;;;;;;5049362;28;20067;-64
2023/08/27 02:38:32;;;;;;;6.95;5.88;;;14.50;99.90;;;;;;5042446;28;20072;-64
2023/08/27 02:40:58;;;;;;;6.00;5.43;;;14.50;99.90;;;;;;5051259;28;20029;-64
2023/08/27 02:43:24;;;;;;;6.60;5.80;;;14.50;99.90;;;;;;5049465;28;20036;-64
2023/08/27 02:45:50;;;;;;;7.57;6.20;;;14.50;99.90;;;;;;5043893;28;20045;-64
2023/08/27 02:48:16;;;;;;;7.70;5.93;;;14.50;99.90;;;;;;5025674;28;20041;-64
2023/08/27 02:50:42;;;;;;;6.80;6.10;;;14.50;99.90;;;;;;5050663;28;20039;-64
2023/08/27 02:53:07;;;;;;;7.43;6.28;;;14.50;99.90;;;;;;5050153;28;20041;-64
2023/08/27 02:55:33;;;;;;;6.82;6.22;;;14.40;99.90;;;;;;5037620;28;20037;-64
2023/08/27 02:57:59;;;;;;;5.65;5.15;;;14.40;99.90;;;;;;5051846;28;20071;-64
2023/08/27 03:00:26;;;;;;;6.53;5.75;;;14.40;99.90;;;;;;5050362;28;20463;-64
2023/08/27 03:02:51;;;;;;;8.50;5.70;;;14.40;99.90;;;;;;5037721;28;20390;-64
2023/08/27 03:05:17;;;;;;;6.75;6.05;;;14.40;99.90;;;;;;5050554;28;20037;-64
2023/08/27 03:07:44;;;;;;;6.95;5.30;;;14.30;99.90;;;;;;5033400;28;20041;-64
2023/08/27 03:10:10;;;;;;;7.38;5.60;;;14.30;99.90;;;;;;5051237;28;20171;-64
2023/08/27 03:12:35;;;;;;;5.97;5.38;;;14.30;99.90;;;;;;5047411;28;20418;-64
2023/08/27 03:15:02;;;;;;;9.80;6.00;;;14.30;99.90;;;;;;5052958;28;20032;-64
2023/08/27 03:17:27;;;;;;;6.10;5.32;;;14.30;99.90;;;;;;5055573;28;20043;-64
2023/08/27 03:19:53;;;;;;;7.03;5.57;;;14.30;99.90;;;;;;5055347;28;20029;-64
2023/08/27 03:22:19;;;;;;;7.35;5.68;;;14.30;99.90;;;;;;5052590;28;20493;-64
2023/08/27 03:24:46;;;;;;;6.38;5.78;;;14.30;99.90;;;;;;5054739;28;20033;-64
2023/08/27 03:27:12;;;;;;;6.80;5.65;;;14.30;99.90;;;;;;5055024;28;20056;-64
2023/08/27 03:29:38;;;;;;;7.88;5.95;;;14.30;99.90;;;;;;5055449;28;20041;-64
2023/08/27 03:32:04;;;;;;;6.82;5.57;;;14.40;99.90;;;;;;5044973;28;20379;-64
2023/08/27 03:34:30;;;;;;;8.15;5.57;;;14.40;99.90;;;;;;5052953;28;20043;-64
2023/08/27 03:36:55;;;;;;;6.90;6.20;;;14.40;99.90;;;;;;5048910;28;20033;-64
2023/08/27 03:39:21;;;;;;;6.80;6.03;;;14.40;99.90;;;;;;5052705;28;20040;-64
2023/08/27 03:41:47;;;;;;;8.10;5.63;;;14.40;99.90;;;;;;5054391;28;20698;-64
2023/08/27 03:44:12;;;;;;;6.82;5.55;;;14.30;99.90;;;;;;5054270;28;20045;-64
2023/08/27 03:46:40;;;;;;;6.28;5.65;;;14.30;99.90;;;;;;5054869;28;20075;-64
2023/08/27 03:49:06;;;;;;;6.63;5.90;;;14.40;99.90;;;;;;5036676;28;20045;-64
2023/08/27 03:51:31;;;;;;;6.78;6.07;;;14.40;99.90;;;;;;5046595;28;20037;-64
2023/08/27 03:53:58;;;;;;;11.20;7.20;;;14.40;99.90;;;;;;5052839;28;20064;-64
2023/08/27 03:56:24;;;;;;;8.25;6.03;;;14.40;99.90;;;;;;5051246;28;20036;-64
2023/08/27 03:58:50;;;;;;;7.05;5.53;;;14.40;99.90;;;;;;5053272;28;20033;-64
2023/08/27 04:01:16;;;;;;;6.70;6.03;;;14.40;99.90;;;;;;5052506;28;20597;-63
2023/08/27 04:03:42;;;;;;;7.10;6.40;;;14.40;99.90;;;;;;5052299;28;20116;-64
2023/08/27 04:06:08;;;;;;;6.97;6.13;;;14.40;99.90;;;;;;5051753;28;20033;-64
2023/08/27 04:08:34;;;;;;;6.68;6.00;;;14.40;99.90;;;;;;5053809;28;20036;-64
2023/08/27 04:11:01;;;;;;;7.10;5.82;;;14.40;99.90;;;;;;5054145;28;20043;-64
2023/08/27 04:13:27;;;;;;;7.43;6.22;;;14.40;99.90;;;;;;5053955;28;20077;-64
2023/08/27 04:16:01;;;;;;;6.90;5.85;;;14.40;99.90;;;;;;5053147;28;20110;-64
2023/08/27 04:18:27;;;;;;;7.88;6.45;;;14.40;99.90;;;;;;5054147;28;20037;-64
2023/08/27 04:20:54;;;;;;;8.35;5.85;;;14.40;99.90;;;;;;5048248;28;20093;-64
2023/08/27 04:23:19;;;;;;;7.25;6.22;;;14.50;99.90;;;;;;5034511;28;20123;-64
2023/08/27 04:25:46;;;;;;;6.68;5.57;;;14.50;99.90;;;;;;5049824;28;20151;-64
2023/08/27 04:28:12;;;;;;;6.90;5.68;;;14.40;99.90;;;;;;5042161;28;20116;-64
2023/08/27 04:30:38;;;;;;;6.85;5.95;;;14.40;99.90;;;;;;5033808;28;20167;-64
2023/08/27 04:33:08;;;;;;;7.88;6.10;;;14.40;99.90;;;;;;5047723;28;20128;-64
2023/08/27 04:35:33;;;;;;;7.25;5.97;;;14.40;99.90;;;;;;5049400;28;20037;-63
2023/08/27 04:37:59;;;;;;;6.60;5.90;;;14.40;99.90;;;;;;5053183;28;20194;-63
2023/08/27 04:40:25;;;;;;;7.63;6.05;;;14.40;99.90;;;;;;5053637;28;20044;-63
2023/08/27 04:42:51;;;;;;;7.55;5.78;;;14.40;99.90;;;;;;5060082;28;20041;-63
2023/08/27 04:45:17;;;;;;;6.40;5.63;;;14.30;99.90;;;;;;5053481;28;20040;-63
2023/08/27 04:47:43;;;;;;;6.10;5.50;;;14.30;99.90;;;;;;5053238;28;20045;-63
2023/08/27 04:50:09;;;;;;;6.70;5.78;;;14.30;99.90;;;;;;5053705;28;20045;-64
2023/08/27 04:52:35;;;;;;;7.28;5.63;;;14.30;99.90;;;;;;5053574;28;20029;-64
2023/08/27 04:55:02;;;;;;;6.10;5.10;;;14.20;99.90;;;;;;5046637;28;20041;-64
2023/08/27 04:57:28;;;;;;;7.20;5.35;;;14.30;99.90;;;;;;5045938;28;20422;-64
2023/08/27 04:59:56;;;;;;;5.85;5.20;;;14.30;99.90;;;;;;5048012;28;20060;-63
2023/08/27 05:02:22;;;;;;;6.13;4.88;;;14.30;99.90;;;;;;5046231;28;20037;-63
2023/08/27 05:04:48;;;;;;;6.05;5.45;;;14.30;99.90;;;;;;5051368;28;20063;-63
2023/08/27 05:07:13;;;;;;;8.13;5.45;;;14.30;99.90;;;;;;5052129;28;20033;-63
2023/08/27 05:09:39;;;;;;;5.88;5.25;;;14.30;99.90;;;;;;5052148;28;20508;-63
2023/08/27 05:12:05;;;;;;;6.00;5.15;;;14.30;99.90;;;;;;5051619;28;20041;-64
2023/08/27 05:14:30;;;;;;;5.72;5.18;;;14.40;99.90;;;;;;5050524;28;20040;-63
2023/08/27 05:16:56;;;;;;;7.30;5.20;;;14.40;99.90;;;;;;5047073;28;20040;-63
2023/08/27 05:19:22;;;;;;;6.13;5.20;;;14.40;99.90;;;;;;5041984;28;20040;-63
2023/08/27 05:21:47;;;;;;;7.85;6.30;;;14.40;99.90;;;;;;5052594;28;20525;-63
2023/08/27 05:24:13;;;;;;;7.13;5.50;;;14.50;99.90;;;;;;5052040;28;20045;-63
2023/08/27 05:26:39;;;;;;;6.05;5.40;;;14.50;99.90;;;;;;5051777;28;20041;-63
2023/08/27 05:29:04;;;;;;;6.95;6.15;;;14.50;99.90;;;;;;5050352;28;20041;-63
2023/08/27 05:31:30;;;;;;;6.85;5.35;;;14.60;99.90;;;;;;5050744;28;20143;-64
2023/08/27 05:33:56;;;;;;;7.88;6.40;;;14.60;99.90;;;;;;5052831;28;20120;-63
2023/08/27 05:36:21;;;;;;;9.63;6.30;;;14.60;99.90;;;;;;5051332;28;20040;-63
2023/08/27 05:38:49;;;;;;;7.55;6.43;;;14.60;99.90;;;;;;5040319;28;20039;-63
2023/08/27 05:41:14;;;;;;;8.82;7.28;;;14.70;99.90;;;;;;5037710;28;20040;-63
2023/08/27 05:43:43;;;;;;;9.63;7.00;;;14.70;99.90;;;;;;5052350;28;20516;-63
2023/08/27 05:46:08;;;;;;;10.82;7.53;;;14.80;99.90;;;;;;5052539;28;20167;-63
2023/08/27 05:48:35;;;;;;;8.38;7.07;;;14.80;99.90;;;;;;5052302;28;20120;-63
2023/08/27 05:51:00;;;;;;;10.35;7.90;;;14.80;99.90;;;;;;5018352;28;20048;-63
2023/08/27 05:53:26;;;;;;;10.75;7.93;;;14.80;99.90;;;;;;5051812;28;20421;-63
2023/08/27 05:55:52;;;;;;;9.95;7.28;;;14.80;99.90;;;;;;5052625;28;20044;-64
2023/08/27 05:58:17;;;;;;;10.52;7.68;;;14.80;99.90;;;;;;5052338;28;20375;-63
2023/08/27 06:00:43;;;;;;;11.82;7.57;;;14.80;99.90;;;;;;5052344;28;20037;-64
2023/08/27 06:03:09;;;;;;;9.82;7.18;;;14.80;99.90;;;;;;5051454;28;20511;-64
2023/08/27 06:05:35;;;;;;;10.75;7.72;;;14.80;99.90;;;;;;5052362;28;20049;-64
2023/08/27 06:08:03;;;;;;;10.75;7.72;;;14.80;99.90;;;;;;5052062;28;20048;-63
2023/08/27 06:10:30;;;;;;;12.13;7.47;;;14.70;99.90;;;;;;5051411;28;20028;-64
2023/08/27 06:12:57;;;;;;;10.70;7.05;;;14.70;99.90;;;;;;5051968;28;20048;-63
2023/08/27 06:15:23;;;;;;;9.43;7.18;;;14.70;99.90;;;;;;5051140;28;20494;-63
2023/08/27 06:17:49;;;;;;;8.80;6.50;;;14.70;99.90;;;;;;5052161;28;20033;-64
2023/08/27 06:20:15;;;;;;;8.93;6.93;;;14.80;99.90;;;;;;5051118;28;20516;-64
2023/08/27 06:22:40;;;;;;;9.32;6.97;;;14.70;99.90;;;;;;5040694;28;20051;-64
2023/08/27 06:25:07;;;;;;;10.07;6.60;;;14.70;99.90;;;;;;5054881;28;20049;-64
2023/08/27 06:27:33;;;;;;;9.60;6.70;;;14.70;99.90;;;;;;5031501;28;20049;-63
2023/08/27 06:29:58;;;;;;;8.43;6.63;;;14.70;99.90;;;;;;5051753;28;20048;-64
2023/08/27 06:32:26;;;;;;;8.20;6.10;;;14.70;99.90;;;;;;5048930;28;20458;-63
2023/08/27 06:34:52;;;;;;;8.55;6.20;;;14.60;99.90;;;;;;5041269;28;20044;-63
2023/08/27 06:37:17;;;;;;;9.38;5.88;;;14.70;99.90;;;;;;5081589;22;20400;-65
2023/08/27 06:39:43;;;;;;;11.55;5.90;;;14.60;99.90;;;;;;5086095;28;20033;-65
2023/08/27 06:42:09;;;;;;;10.23;6.20;;;14.60;99.90;;;;;;5079704;28;20037;-65
2023/08/27 06:44:34;;;;;;;9.32;5.90;;;14.70;99.90;;;;;;5082811;28;20477;-65
2023/08/27 06:47:00;;;;;;;7.05;5.65;;;14.70;99.90;;;;;;5077874;28;20032;-65
2023/08/27 06:49:25;;;;;;;8.95;5.95;;;14.60;99.90;;;;;;5088975;28;20028;-64
2023/08/27 06:51:51;;;;;;;6.05;4.80;;;14.70;99.90;;;;;;5084452;28;20366;-65
2023/08/27 06:54:17;;;;;;;6.60;4.97;;;14.70;99.90;;;;;;5079048;28;20432;-65
2023/08/27 06:56:43;;;;;;;8.68;5.25;;;14.70;99.90;;;;;;5071407;28;20482;-65
2023/08/27 06:59:10;;;;;;;8.68;5.35;;;14.70;99.90;;;;;;5071738;28;20047;-65
2023/08/27 07:01:36;;;;;;;9.43;5.40;;;14.70;99.90;;;;;;5085471;28;20048;-65
2023/08/27 07:04:03;;;;;;;8.05;5.10;;;14.70;99.90;;;;;;5080630;28;20425;-66
2023/08/27 07:06:30;;;;;;;5.35;4.50;;;14.70;99.90;;;;;;5093058;28;20040;-65
2023/08/27 07:08:55;;;;;;;7.40;4.63;;;14.70;99.90;;;;;;5077899;28;20040;-65
2023/08/27 07:11:21;;;;;;;6.65;4.75;;;14.70;99.90;;;;;;5090027;28;20111;-65
2023/08/27 07:13:48;;;;;;;7.03;4.80;;;14.70;99.90;;;;;;5082577;28;20041;-65
2023/08/27 07:16:15;;;;;;;7.13;4.90;;;14.80;99.90;;;;;;5079967;28;20111;-65
2023/08/27 07:18:41;;;;;;;9.57;5.15;;;14.70;99.90;;;;;;5078242;28;20043;-65
2023/08/27 07:21:07;;;;;;;8.27;4.88;;;14.80;99.90;;;;;;5070930;28;20036;-65
2023/08/27 07:23:33;;;;;;;8.90;5.30;;;14.80;99.90;;;;;;5088926;28;20032;-65
2023/08/27 07:25:59;;;;;;;7.85;4.72;;;14.80;99.90;;;;;;5091663;28;20032;-65
2023/08/27 07:28:24;;;;;;;7.97;4.45;;;14.80;99.90;;;;;;5086974;28;20043;-65
2023/08/27 07:30:50;;;;;;;7.80;4.72;;;14.90;99.90;;;;;;5085825;28;20033;-64
2023/08/27 07:33:17;;;;;;;6.57;4.68;;;14.90;99.90;;;;;;5089385;28;20051;-65
2023/08/27 07:35:43;;;;;;;5.40;4.25;;;15.00;99.90;;;;;;5068538;28;20043;-65
2023/08/27 07:38:09;;;;;;;5.40;4.30;;;15.10;99.90;;;;;;5091030;28;20032;-65
2023/08/27 07:40:37;;;;;;;6.20;4.80;;;15.20;99.90;;;;;;5091105;28;20040;-65
2023/08/27 07:43:03;;;;;;;7.65;5.65;;;15.40;99.90;;;;;;5099274;28;20040;-65
2023/08/27 07:45:29;;;;;;;7.20;4.35;;;15.60;99.90;;;;;;5091833;28;20115;-65
2023/08/27 07:47:55;;;;;;;10.30;5.13;;;15.80;99.90;;;;;;5086285;28;20174;-65
2023/08/27 07:50:20;;;;;;;5.97;4.28;;;16.00;99.90;;;;;;5079444;28;20413;-65
2023/08/27 07:52:46;;;;;;;6.20;4.50;;;16.20;99.90;;;;;;5090347;28;20033;-65
2023/08/27 07:55:11;;;;;;;6.05;4.30;;;16.40;99.90;;;;;;5074768;28;20037;-66
2023/08/27 07:57:37;;;;;;;3.92;3.20;;;16.60;99.90;;;;;;5087996;28;20032;-65
2023/08/27 08:00:03;;;;;;;5.15;3.10;;;16.70;99.90;;;;;;5091508;28;20036;-65
2023/08/27 08:02:29;;;;;;;4.57;3.45;;;16.60;99.90;;;;;;5071994;28;20040;-65
2023/08/27 08:04:55;;;;;;;3.88;2.80;;;16.60;99.90;;;;;;5075120;28;20047;-65
2023/08/27 08:07:20;;;;;;;5.88;3.10;;;16.50;99.90;;;;;;5056792;28;20056;-65
2023/08/27 08:09:46;;;;;;;4.40;3.05;;;16.40;99.90;;;;;;5075205;28;20429;-65
2023/08/27 08:12:12;;;;;;;5.28;3.33;;;16.40;99.90;;;;;;5093755;28;20093;-65
2023/08/27 08:14:38;;;;;;;4.45;3.22;;;16.40;99.90;;;;;;5085471;28;20035;-65
2023/08/27 08:17:04;;;;;;;5.25;3.13;;;16.40;99.90;;;;;;5090788;28;20044;-65
2023/08/27 08:19:29;;;;;;;3.38;2.70;;;16.50;99.90;;;;;;5086347;28;20028;-65
2023/08/27 08:21:55;;;;;;;4.00;2.72;;;16.70;99.90;;;;;;5090285;28;20043;-65
2023/08/27 08:24:20;;;;;;;5.45;3.10;;;16.80;99.90;;;;;;5089404;28;20454;-65
2023/08/27 08:26:49;;;;;;;3.63;2.80;;;17.00;99.90;;;;;;5090003;28;20032;-65
2023/08/27 08:29:15;;;;;;;5.15;2.90;;;17.20;99.90;;;;;;5086340;28;20079;-65
2023/08/27 08:31:40;;;;;;;4.90;3.13;;;17.30;99.90;;;;;;5080796;28;20090;-65
2023/08/27 08:34:06;;;;;;;2.97;2.30;;;17.50;99.90;;;;;;5085132;28;20040;-65
2023/08/27 08:36:33;;;;;;;4.00;2.80;;;17.60;99.90;;;;;;5093276;28;20128;-65
2023/08/27 08:38:58;;;;;;;3.95;2.47;;;17.70;99.90;;;;;;5092655;28;20039;-65
2023/08/27 08:41:27;;;;;;;5.25;2.88;;;17.80;99.90;;;;;;5091802;28;20032;-65
2023/08/27 08:44:04;;;;;;;4.20;2.70;;;17.80;99.90;;;;;;5090318;28;20461;-65
2023/08/27 08:46:35;;;;;;;3.45;2.97;;;17.90;99.90;;;;;;5074125;28;20051;-65
2023/08/27 08:49:02;;;;;;;5.05;2.83;;;18.00;99.90;;;;;;5085843;28;20036;-65
2023/08/27 08:51:28;;;;;;;4.60;3.40;;;18.10;99.90;;;;;;5083661;28;20068;-66
2023/08/27 08:53:59;;;;;;;4.65;2.75;;;18.20;99.90;;;;;;5091827;28;20032;-65
2023/08/27 08:56:31;;;;;;;5.03;3.03;;;18.30;99.90;;;;;;5085363;28;20032;-65
2023/08/27 08:58:58;;;;;;;6.60;3.35;;;18.40;99.90;;;;;;5091651;28;20446;-65
2023/08/27 09:01:24;;;;;;;5.65;3.38;;;18.50;99.90;;;;;;5090896;28;20032;-66
2023/08/27 09:03:51;;;;;;;6.78;4.03;;;18.40;99.90;;;;;;5088142;28;20036;-65
2023/08/27 09:06:18;;;;;;;6.72;3.95;;;18.50;99.90;;;;;;5078857;28;20040;-65
2023/08/27 09:08:44;;;;;;;4.88;3.30;;;18.50;99.90;;;;;;5085865;28;20124;-65
2023/08/27 09:11:11;;;;;;;5.35;3.80;;;18.70;99.90;;;;;;5090950;28;20052;-65
2023/08/27 09:13:37;;;;;;;5.03;3.35;;;18.80;99.90;;;;;;5088282;28;20494;-65
2023/08/27 09:16:04;;;;;;;5.28;3.72;;;19.00;99.90;;;;;;5075571;28;20078;-66
2023/08/27 09:18:30;;;;;;;5.75;3.75;;;19.10;99.90;;;;;;5071234;28;20114;-65
2023/08/27 09:20:58;;;;;;;4.70;3.67;;;19.20;99.90;;;;;;5086854;28;20481;-65
2023/08/27 09:23:24;;;;;;;6.28;3.72;;;19.40;99.90;;;;;;5088625;28;20093;-65
2023/08/27 09:25:52;;;;;;;5.40;4.03;;;19.50;99.90;;;;;;5085001;28;20048;-66
2023/08/27 09:28:18;;;;;;;9.20;4.32;;;19.60;99.90;;;;;;5083180;28;20040;-64
2023/08/27 09:30:44;;;;;;;7.10;4.35;;;19.80;99.90;;;;;;5080472;28;20044;-65
2023/08/27 09:33:09;;;;;;;4.63;3.22;;;19.80;99.90;;;;;;5087172;28;20039;-65
2023/08/27 09:35:41;;;;;;;5.95;3.47;;;19.90;99.90;;;;;;5083987;28;20036;-65
2023/08/27 09:38:11;;;;;;;6.72;3.50;;;20.00;99.90;;;;;;5088978;28;20039;-65
2023/08/27 09:40:37;;;;;;;5.35;3.85;;;20.10;99.90;;;;;;5080210;28;20036;-65
2023/08/27 09:43:06;;;;;;;5.00;3.50;;;20.00;99.90;;;;;;5091483;28;20063;-65
2023/08/27 09:45:33;;;;;;;7.53;3.30;;;20.10;99.90;;;;;;5086930;28;20047;-65
2023/08/27 09:48:00;;;;;;;6.55;2.95;;;20.00;99.90;;;;;;5084048;28;20051;-65
2023/08/27 09:50:27;;;;;;;4.38;2.80;;;19.90;99.90;;;;;;5081477;28;20050;-65
2023/08/27 09:52:54;;;;;;;8.52;3.00;;;19.90;99.90;;;;;;5086779;28;20393;-65
2023/08/27 09:55:20;;;;;;;4.38;2.67;;;19.90;99.90;;;;;;5087591;28;20103;-65
2023/08/27 09:57:50;;;;;;;5.65;3.10;;;20.00;99.90;;;;;;5090200;28;20609;-65
2023/08/27 10:00:17;;;;;;;5.93;2.90;;;20.00;99.90;;;;;;5060871;28;20052;-65
2023/08/27 10:02:43;;;;;;;4.70;2.97;;;20.00;99.90;;;;;;5088086;28;20036;-66
2023/08/27 10:05:09;;;;;;;5.50;3.15;;;19.90;99.90;;;;;;5080764;28;20136;-66
2023/08/27 10:07:35;;;;;;;5.18;3.72;;;19.90;99.90;;;;;;5070173;28;20048;-66
2023/08/27 10:10:05;;;;;;;5.10;2.85;;;19.70;99.90;;;;;;5090814;28;20724;-65
2023/08/27 10:12:31;;;;;;;5.60;3.42;;;19.50;99.90;;;;;;5080358;28;20051;-65
2023/08/27 10:14:59;;;;;;;4.57;2.70;;;19.30;99.90;;;;;;5085528;28;20040;-65
2023/08/27 10:17:25;;;;;;;5.82;3.22;;;19.10;99.90;;;;;;5090788;28;20039;-66
2023/08/27 10:19:51;;;;;;;5.03;3.03;;;18.90;99.90;;;;;;5091071;28;20039;-65
2023/08/27 10:22:18;;;;;;;8.00;3.53;;;18.80;99.90;;;;;;5087466;28;20040;-65
2023/08/27 10:24:46;;;;;;;4.80;2.90;;;18.70;99.90;;;;;;5090420;28;20044;-65
2023/08/27 10:27:12;;;;;;;6.75;3.40;;;18.70;99.90;;;;;;5089371;28;20043;-65
2023/08/27 10:29:40;;;;;;;5.40;3.08;;;18.70;99.90;;;;;;5090356;28;20036;-65
2023/08/27 10:32:07;;;;;;;3.85;2.70;;;18.80;99.90;;;;;;5081825;28;20052;-65
2023/08/27 10:34:33;;;;;;;4.35;2.65;;;18.90;99.90;;;;;;5081368;28;20041;-66
2023/08/27 10:37:06;;;;;;;8.63;3.10;;;19.00;99.90;;;;;;5088919;28;20424;-66
2023/08/27 10:39:35;;;;;;;6.65;2.40;;;19.20;99.90;;;;;;5087203;28;20089;-66
2023/08/27 10:42:01;;;;;;;6.30;2.67;;;19.50;99.90;;;;;;5071952;28;20040;-65
2023/08/27 10:44:26;;;;;;;3.65;2.20;;;19.80;99.90;;;;;;5071944;28;20036;-66
2023/08/27 10:47:17;;;;;;;5.30;2.65;;;20.10;99.90;;;;;;5068614;28;20396;-66
2023/08/27 10:49:47;;;;;;;4.25;2.15;;;20.30;99.90;;;;;;5082195;28;20060;-66
2023/08/27 10:52:20;;;;;;;2.28;1.88;;;20.50;99.90;;;;;;5089222;28;20039;-66
2023/08/27 10:54:46;;;;;;;5.85;2.47;;;20.60;99.90;;;;;;5079848;28;20040;-66
2023/08/27 10:57:21;;;;;;;5.25;2.25;;;20.70;99.90;;;;;;5091134;28;20032;-66
2023/08/27 10:59:47;;;;;;;2.13;1.70;;;20.70;99.90;;;;;;5079451;28;20029;-66
2023/08/27 11:02:15;;;;;;;5.18;2.17;;;20.80;99.90;;;;;;5061155;28;20400;-66
2023/08/27 11:04:51;;;;;;;6.05;2.75;;;20.80;99.90;;;;;;5074115;28;20074;-66
2023/08/27 11:07:22;;;;;;;3.33;2.42;;;20.70;99.90;;;;;;5091013;28;20044;-66
2023/08/27 11:09:49;;;;;;;4.05;2.05;;;20.70;99.90;;;;;;5087454;28;20039;-66
2023/08/27 11:12:32;;;;;;;4.60;2.50;;;20.70;99.90;;;;;;5073310;28;20044;-66
2023/08/27 11:15:19;;;;;;;4.35;2.67;;;20.50;99.90;;;;;;5089585;28;20024;-66
2023/08/27 11:17:45;;;;;;;5.65;2.60;;;20.40;99.90;;;;;;5088676;28;20024;-66
2023/08/27 11:20:24;;;;;;;5.18;2.88;;;20.30;99.90;;;;;;5078750;28;20507;-66
2023/08/27 11:23:08;;;;;;;4.47;2.95;;;20.40;99.90;;;;;;5066241;28;20062;-66
2023/08/27 11:25:36;;;;;;;4.47;2.30;;;20.50;99.90;;;;;;5073174;28;20044;-66
2023/08/27 11:28:04;;;;;;;2.97;2.60;;;20.60;99.90;;;;;;5091880;28;20047;-66
2023/08/27 11:30:30;;;;;;;4.38;2.60;;;20.70;99.90;;;;;;5070292;28;20044;-66
2023/08/27 11:32:57;;;;;;;4.60;2.67;;;20.70;99.90;;;;;;5085156;28;20048;-66
2023/08/27 11:35:23;;;;;;;7.90;2.90;;;20.70;99.90;;;;;;5092833;28;20040;-66
2023/08/27 11:37:50;;;;;;;3.03;2.28;;;20.70;99.90;;;;;;5094193;28;20043;-66
2023/08/27 11:40:16;;;;;;;3.78;2.55;;;20.60;99.90;;;;;;5076385;28;20072;-66
2023/08/27 11:42:53;;;;;;;4.78;2.75;;;20.60;99.90;;;;;;5083205;28;20036;-66
2023/08/27 11:45:34;;;;;;;4.28;2.60;;;20.60;99.90;;;;;;5075391;28;20044;-66
2023/08/27 11:48:07;;;;;;;3.20;2.67;;;20.50;99.90;;;;;;5075150;28;20040;-66
2023/08/27 11:50:33;;;;;;;4.45;2.10;;;20.50;99.90;;;;;;5068262;28;20065;-66
2023/08/27 11:53:00;;;;;;;4.63;1.90;;;20.40;99.90;;;;;;5089401;28;20032;-66
2023/08/27 11:55:26;;;;;;;4.13;1.98;;;20.40;99.90;;;;;;5095425;28;20173;-67
2023/08/27 11:57:52;;;;;;;1.92;1.50;;;20.30;99.90;;;;;;5095356;28;20115;-66
2023/08/27 12:00:18;;;;;;;4.53;2.08;;;20.20;99.90;;;;;;5094347;28;20040;-66
2023/08/27 12:02:44;;;;;;;3.72;1.98;;;20.10;99.90;;;;;;5082497;28;20044;-66
2023/08/27 12:05:10;;;;;;;4.30;1.90;;;19.90;99.90;;;;;;5074708;28;20036;-66
2023/08/27 12:07:37;;;;;;;4.93;1.80;;;19.80;99.90;;;;;;5057041;28;20130;-66
2023/08/27 12:10:09;;;;;;;4.05;2.08;;;19.70;99.90;;;;;;5065895;28;20055;-67
2023/08/27 12:12:42;;;;;;;2.60;1.55;;;19.50;99.90;;;;;;5086505;28;20040;-66
2023/08/27 12:15:08;;;;;;;1.70;1.50;;;19.30;99.90;;;;;;5094951;28;20047;-66
2023/08/27 12:17:36;;;;;;;2.80;1.20;;;18.90;99.90;;;;;;5093861;28;20709;-67
2023/08/27 12:20:07;;;;;;;2.22;1.40;;;18.70;99.90;;;;;;5088072;28;20390;-66
2023/08/27 12:22:46;;;;;;;2.70;1.95;;;18.50;99.90;;;;;;5080224;28;20079;-66
2023/08/27 12:25:12;;;;;;;2.67;1.90;;;18.20;99.90;;;;;;5094842;28;20039;-68
2023/08/27 12:27:40;;;;;;;2.95;2.17;;;18.10;99.90;;;;;;5075152;28;20065;-67
2023/08/27 12:30:06;;;;;;;3.22;1.67;;;18.00;99.90;;;;;;5094397;28;20043;-67
2023/08/27 12:32:34;;;;;;;3.80;2.00;;;17.80;99.90;;;;;;5074988;28;20051;-66
2023/08/27 12:35:00;;;;;;;3.25;2.50;;;17.80;99.90;;;;;;5056520;28;20047;-66
2023/08/27 12:37:25;;;;;;;4.40;3.17;;;17.70;99.90;;;;;;5093166;22;20055;-64
2023/08/27 12:39:51;;;;;;;4.75;3.40;;;17.80;99.90;;;;;;5108313;27;20028;-63
2023/08/27 12:42:17;;;;;;;4.50;3.92;;;17.80;99.90;;;;;;5102326;28;20043;-64
2023/08/27 12:44:46;;;;;;;7.40;5.05;;;17.90;99.90;;;;;;5093372;28;20073;-63
2023/08/27 12:47:12;;;;;;;8.52;5.40;;;17.90;99.90;;;;;;5084114;28;20040;-63